Lovell, ME

2:03 AM EDT on July 29, 2016 (GMT -0400)
Creeper Hill, NW Cove Kezar Lake | | Change Station

Elev 385 ft 44.17 °N, 70.94 °W | Updated 3 seconds ago

Clear
Clear
66.6 °F
Feels Like 66.6 °F
N
0.0
Wind Variable Wind from North
Gusts 0.0 mph

Today
High -- | Low -- °F
--% Chance of Precip.
Yesterday
High -- | Low -- °F
Precip. -- in
Pressure 29.89 in
Visibility 9.0 miles
Clouds Clear
Dew Point 64 °F
Humidity 93%
Rainfall 0.00 in
Snow Depth Not available.
5:28 AM 8:11 PM
Waning Crescent, 25% visible
METAR KIZG 290554Z AUTO 00000KT 9SM CLR 18/18 A2989 RMK AO2 SLP120 T01830183 10239 20183 58004
Pressure 29.89 in
Visibility 9.0 miles
Clouds Clear
Dew Point 64 °F
Humidity 93%
Rainfall 0.00 in
Snow Depth Not available.
5:28 AM 8:11 PM
Waning Crescent, 25% visible
METAR KIZG 290554Z AUTO 00000KT 9SM CLR 18/18 A2989 RMK AO2 SLP120 T01830183 10239 20183 58004

10-Day Weather Forecast

Almanac

Astronomy

Jul. 29, 2016 Rise Set
Actual Time
Civil Twilight
Nautical Twilight
Astronomical Twilight
Moon
Length of Visible Light
Length of Day
Tomorrow will be .
, % of the Moon is Illuminated

Today's Extremes

State Highs State Lows

Community

WunderPhotos

Upload Photos

1,928,299 photos uploaded!

WunderBlog® & News

Nearby

Air Quality

  Air Quality AQ Index Pollutant
Not available.

Snow Depth

Station Depth Elevation

Earthquake Activity

City Distance Mag. Time & Date
Minimum magnitude displayed is 2.5.

Coastal Water Temperatures

Place Temperature

Stations

Nearby Weather Stations

Station Location Temp. Windchill Dew Point Humidity Wind Precip. Elev Updated Type
                   

Watches & Warnings

There are currently no watches in effect.